Laman API Video Percuma Terbaik

AVDBAPI.COM

Cari katalog, semak rekod, dan salin URL API bersih daripada papan pemuka pantas.

Telegram Join Our Telegram Community for Updates!
Today
30
Kemaskini Hari Ini
Censored
314171
Censored Videos
Total
474382
Total Videos

Senarai Video

Rekod terkini disusun mengikut masa kemas kini.

ID Nama CODE Kategori Dikemaskini API
266077 022520-261 Wanita Matang Tanpa Seluar Dalam - Tak Masuk Akal! 022520-261 Tanpa sensor 2025-08-29 07:04:30 API
266076 H0930-ORI1601 Wanita Seksi 28 Tahun Yasuka Sakakiyama H0930-ORI1601 Tanpa sensor 2025-08-29 07:04:20 API
266075 102420-01 Amatur Tanpa Mekap ~ Tetap Seksi Walaupun Tanpa Solekan ~ 102420-01 Tanpa sensor 2025-08-29 07:04:10 API
266074 H4610-KI220130 Babe 21 Tahun Rieko Shibuya H4610-KI220130 Tanpa sensor 2025-08-29 07:04:00 API
266073 SKY-151 Bukkake Wanita Matang Vol.3: Maki Hojo SKY-151 Tanpa sensor 2025-08-29 07:03:50 API
266072 051821-001 Pelayan Maid Berlakon Memohon 3P ~ Big! Moe Moe Kyun! ~ Reika Seto Saori 051821-001 Tanpa sensor 2025-08-29 07:03:40 API
266071 031915-146 KIRARI 93 Pelayan Maid Isteri Orang di Salon 031915-146 Tanpa sensor 2025-08-29 07:03:30 API
266070 C0930-TK0025 Tomoko Shinomiya, 26 tahun C0930-TK0025 Tanpa sensor 2025-08-29 07:03:20 API
266069 102919 Ciuman Mengghairahkan dan Hubungan Fizikal Bersama Si Kaya Koharu Tachibana 102919_921 Tanpa sensor 2025-08-29 07:03:10 API
266068 FC2-PPV-4483777 Gadis Perkhidmatan Akihabara Memancut Tanpa Henti, Faraj Sucinya Memancutkan Air Dengan Banyak Dua Kali FC2-PPV-4483777 Tanpa sensor 2025-08-29 07:03:00 API
266067 022720-262 Sambil menggelek buah dada empuk macam marshmallow, layan sampai puas 022720-262 Tanpa sensor 2025-08-29 07:02:50 API
266066 HEYZO-2500 Gadis Berdada Besar dengan Badan Berisi adalah Pelacur Erotik yang Boleh Anal Juga HEYZO-2500 Tanpa sensor 2025-08-29 07:02:40 API
266065 102720-01 Ini kali pertama saya, tolong buat payudara saya rasa nikmat dengan mesin urut elektrik 102720-01 Tanpa sensor 2025-08-29 07:02:30 API
266064 H4610-ORI1773 Juri Yasutomo Umur 20 Tahun H4610-ORI1773 Tanpa sensor 2025-08-29 07:02:20 API
266063 FC2-PPV-4484174 Harga Istimewa! Dah 3 tahun bercinta, dia minta seks bersemuka di Bandar Dazhou! FC2-PPV-4484174 Tanpa sensor 2025-08-29 07:02:10 API
266062 H0930-KI210509 Machiko Nishizaki, Wanita Seksi Berusia 30 Tahun H0930-KI210509 Tanpa sensor 2025-08-29 07:02:00 API
266060 103119 Momoka Ogawa Kena Tembak Melampau 103119_922 Tanpa sensor 2025-08-29 07:01:40 API
266059 022920-263 Menyeksa nikmat isteri cantik dengan berus bulu kasar 022920-263 Tanpa sensor 2025-08-29 07:01:30 API
266058 CARIBBEANCOMPR-040315 Super Mewah Payudara Besar dan Sabun CARIBBEANCOMPR-040315_163 Tanpa sensor 2025-08-29 07:01:20 API
266057 H0930-KI210511 Wanita Menggiurkan 34 Tahun Noriko Kakei H0930-KI210511 Tanpa sensor 2025-08-29 07:01:10 API
266056 C0930-KI201219 Gold Pack Gadis 20 Tahun C0930-KI201219 Tanpa sensor 2025-08-29 07:01:00 API
266055 HEYZO-2501 Tanpa Henti! Terus Mengentot Sampai Ke Syurga! HEYZO-2501 Tanpa sensor 2025-08-29 07:00:50 API
266054 051921-001 [VR] Emiri Momota, makin sibuk makin ghairah, minta kau balik rumah berbaju jururawat seksi 051921-001 Tanpa sensor 2025-08-29 07:00:40 API
266053 H-1773 Juri Yasutomo H-1773 Tanpa sensor 2025-08-29 07:00:30 API
266052 FC2-PPV-4484295 Ryo (23) Mula-mula tolak seks anal, tapi akhirnya berjaya ditembus juga. Bila dijadikan macam mesin ATM, dia sampai keluar buih dari mulut sebab terlalu syok FC2-PPV-4484295 Tanpa sensor 2025-08-29 07:00:20 API
266051 102820-01 Koleksi Puki Pilihan Terbaik - Sila Lihat Puki Yuko - 102820-01 Tanpa sensor 2025-08-29 07:00:10 API
266050 SKY-154 Sky Angel Vol.104: Saki Kozakura SKY-154 Tanpa sensor 2025-08-29 07:00:00 API
266049 HEYZO-2502 Godaan cabul pelacur matang - Nikmati tubuh yang menggoda - HEYZO-2502 Tanpa sensor 2025-08-29 06:59:50 API
266048 110219_923 Saya mahu diikat ~ Wanita cantik yang menawarkan diri untuk latihan ~ 110219_923 Tanpa sensor 2025-08-29 06:59:40 API
266047 040315-162 Buku Gambar Kemaluan Koyomi Yukihira 040315-162 Tanpa sensor 2025-08-29 06:59:30 API
266046 H0930-TK0034 Wanita Cantik 35 Tahun Aya Tokunaga H0930-TK0034 Tanpa sensor 2025-08-29 06:59:20 API
266045 052021-001 05201-001 Buku Gambar Khemak Chika Sugiyama 052021-001 Tanpa sensor 2025-08-29 06:59:10 API
266044 030320-264 Jilat lubang Chitose! 030320-264 Tanpa sensor 2025-08-29 06:59:00 API
266043 C0930-KI201220 Wanita Cantik 28 Tahun Fumiho Shimazu C0930-KI201220 Tanpa sensor 2025-08-29 06:58:50 API
266042 102920-01 Bila saya telefon hotel, dia datang memakai kostum bondage yang sangat nakal! 102920-01 Tanpa sensor 2025-08-29 06:58:40 API
266041 040315-163 Sabun Mewah Untuk Babe Berdada Besar 040315-163 Tanpa sensor 2025-08-29 06:58:30 API
266040 052121-001 Sumire Mika, seks sensual bersama gadis seks super popular yang tidak boleh ditempah 052121-001 Tanpa sensor 2025-08-29 06:58:20 API
266039 HEYZO-2503 Ciuman Tangan Honda Anna HEYZO-2503 Tanpa sensor 2025-08-29 06:58:10 API
266038 H-220130 - Rieko Shibuya Umur 21 Tahun H-220130 Tanpa sensor 2025-08-29 06:58:00 API
266037 110319_001 Meyrin ~ Edisi Khas: Kecantikan Kacukan Shanghai-Jepun ~ 110319_001 Tanpa sensor 2025-08-29 06:57:50 API
266036 FC2-PPV-4482922 Mayat paling menjijikkan diremas-remas, kemudian kena creampie dalam bilik air ber-AC, lalu diremas lagi di hotel FC2-PPV-4482922 Tanpa sensor 2025-08-29 06:57:40 API
266035 H0930-KI210516 Wanita Matang 39 Tahun Mina Nagakura H0930-KI210516 Tanpa sensor 2025-08-29 06:57:30 API
266034 030520-265 Wanita Matang Tanpa Seluar Dalam ~ Isteri Yang Tidak Dapat Menahan Nafsu ~ 030520-265 Tanpa sensor 2025-08-29 06:57:20 API
266032 103020-01 Koleksi Puki Pilihan - Sila Lihat Puki Mayumi - 103020-01 Tanpa sensor 2025-08-29 06:57:00 API
266030 HEYZO-2524 Isteri Amatir Bercukur Untuk Orgi Lesbian Gila Bersama Suami 2 HEYZO-2524 Tanpa sensor 2025-08-29 06:56:40 API
266029 CARIBBEANCOMPR-040415 Kalau kau tahan kena kangkang dengan Yui Hatano, kau akan dapat parti penghargaan peminat yang padu CARIBBEANCOMPR-040415_166 Tanpa sensor 2025-08-29 06:56:30 API
266028 052221-001 Akari Satsuki, wanita matang menawan dengan sweater mematikan yang membuat lelaki tergila 052221-001 Tanpa sensor 2025-08-29 06:56:20 API
266027 H0930-KI210518 Mayumi Nakagawa Wanita Matang 43 Tahun H0930-KI210518 Tanpa sensor 2025-08-29 06:56:10 API
266025 H-220129 - ki220129 Elisa Tada Wanita 26 Tahun H-220129 Tanpa sensor 2025-08-29 06:55:50 API
266024 030720-266 Dokumentasi penggambaran pertama isteri amatur Suzu Honmiya 030720-266 Tanpa sensor 2025-08-29 06:55:40 API